KFBG/FBG METAR and TAF weather

Enter ICAO airport designator
Station Type Date Time Source
KFBG METAR 2019/02/22 22:13 UTC NOAA

KFBG 222213Z AUTO 04007KT 6SM -RA BR OVC006 07/07 A3033 RMK AO2 RAB2156 CIG 006V008 SLPNO $


Station Type Date Time Source
KFBG Decoded METAR 2019/02/22 22:13 UTC NOAA

Fort Bragg / Simmons Army Airfield, NC, United States (KFBG) 35-08N 078-56W 74M
Feb 22, 2019 - 05:13 PM EST / 2019.02.22 2213 UTC
Wind: from the NE (040 degrees) at 8 MPH (7 KT):0
Visibility: 6 mile(s):0
Sky conditions: overcast
Weather: light rain; mist
Temperature: 44 F (7 C)
Dew Point: 44 F (7 C)
Relative Humidity: 100%
Pressure (altimeter): 30.33 in. Hg (1027 hPa)
ob: KFBG 222213Z AUTO 04007KT 6SM -RA BR OVC006 07/07 A3033 RMK AO2 RAB2156 CIG 006V008 SLPNO
cycle: 22

Station Type Date Time Source
KFBG TAF 2019/02/22 21:18 UTC NOAA

TAF TAF
AMD KFBG 222110Z 2221/2324 04010G15KT 9999 OVC007 QNH3030INS
BECMG 2222/2223 06009KT 8000 -RA OVC005 QNH3034INS
BECMG 2312/2313 05006KT 4800 -RA BR OVC004 QNH3025INS
BECMG 2318/2319 06006KT 8000 BR OVC004 QNH3014INS TX10/2221Z TN05/2315Z


Example: see airport list